Holguin, Cuba
Current Conditions -  °F | °C
As of 7:50 PM on Saturday 25 Oct 2014 (Local Time) from MUHG Reporting Station
Light Rain Light Rain  
Wind Chill: 73°   Ceiling: 1800
Heat Index: 73°   Visibility: 4mi
Dew Point: 72°   Wind: 13mph
Humidity: 94%   Direction: 290°WNW
Pressure: 29.85"   Gusts: NA
Location:  20.89°N, 76.25°W
Report Text: MUHG 252350Z 29011KT 7000 -RA BKN018 OVC080 23/22 Q1011
Loading
Personal Weather Stations






























Interactive Weather Map
Tropical Storm Tracking
New forecast layout! Learn more

10-Day Weather Forecast

Advertisements
Track Severe Weather on mobile